createdAt,value
2023-02-23T00:02:08.794Z,99108.28
2023-02-23T00:04:38.605Z,99107.59
2023-02-23T00:07:10.100Z,99121.31
2023-02-23T00:09:39.121Z,99110.19
2023-02-23T00:12:15.555Z,99112.09
2023-02-23T00:14:44.326Z,99112.59
2023-02-23T00:17:15.145Z,99114.19
2023-02-23T00:19:44.076Z,99118.69
2023-02-23T00:22:12.194Z,99127.63
2023-02-23T00:24:40.832Z,99131.69
2023-02-23T00:27:11.014Z,99122.66
2023-02-23T00:29:40.691Z,99124.53
2023-02-23T00:32:09.426Z,99138.94
2023-02-23T00:34:37.188Z,99135.59
2023-02-23T00:37:04.353Z,99140.53
2023-02-23T00:39:34.305Z,99133.53
2023-02-23T00:42:03.491Z,99113.91
2023-02-23T00:44:34.136Z,99114.66
2023-02-23T00:47:02.075Z,99135.88
2023-02-23T00:49:29.203Z,99139.31
2023-02-23T00:51:56.513Z,99129.41
2023-02-23T00:54:23.654Z,99146.97
2023-02-23T00:56:51.700Z,99154.81
2023-02-23T00:59:19.788Z,99158.41
2023-02-23T01:01:47.120Z,99150.09
2023-02-23T01:04:14.759Z,99160.41
2023-02-23T01:06:42.819Z,99161.19
2023-02-23T01:09:13.679Z,99149.63
2023-02-23T01:11:41.738Z,99150.72
2023-02-23T01:14:10.610Z,99169.38
2023-02-23T01:16:41.027Z,99159.34
2023-02-23T01:19:08.504Z,99161.16
2023-02-23T01:21:42.612Z,99176.50
2023-02-23T01:24:13.199Z,99177.47
2023-02-23T01:26:43.820Z,99181.03
2023-02-23T01:29:13.855Z,99182.59
2023-02-23T01:31:47.961Z,99178.47
2023-02-23T01:34:21.495Z,99183.84
2023-02-23T01:36:48.752Z,99167.81
2023-02-23T01:39:20.949Z,99178.03
2023-02-23T01:41:51.112Z,99175.66
2023-02-23T01:44:23.307Z,99174.91
2023-02-23T01:46:50.782Z,99169.88
2023-02-23T01:49:25.789Z,99170.78
2023-02-23T01:52:03.755Z,99175.97
2023-02-23T01:54:36.525Z,99180.50
2023-02-23T01:57:05.154Z,99177.28
2023-02-23T01:59:44.537Z,99164.63
2023-02-23T02:02:13.474Z,99163.06
2023-02-23T02:04:45.523Z,99172.56
2023-02-23T02:07:25.137Z,99180.13
2023-02-23T02:10:13.409Z,99161.44
2023-02-23T02:12:45.149Z,99174.25
2023-02-23T02:15:18.453Z,99196.81
2023-02-23T02:17:57.145Z,99195.72
2023-02-23T02:20:38.158Z,99202.41
2023-02-23T02:23:34.605Z,99204.09
2023-02-23T02:26:21.150Z,99208.56
2023-02-23T02:29:31.425Z,99194.19
2023-02-23T02:32:16.964Z,99219.72
2023-02-23T02:34:55.630Z,99215.69
2023-02-23T02:37:56.992Z,99219.50
2023-02-23T02:40:26.869Z,99212.88
2023-02-23T02:43:17.739Z,99221.97
2023-02-23T02:45:53.526Z,99221.53
2023-02-23T02:48:25.948Z,99219.84
2023-02-23T02:50:57.536Z,99223.13
2023-02-23T02:53:36.765Z,99232.91
2023-02-23T02:56:09.660Z,99236.59
2023-02-23T02:58:39.189Z,99232.41
2023-02-23T03:01:32.193Z,99221.34
2023-02-23T03:04:19.787Z,99217.94
2023-02-23T03:07:31.032Z,99230.00
2023-02-23T03:10:55.314Z,99222.50
2023-02-23T03:13:48.673Z,99230.19
2023-02-23T03:16:49.066Z,99237.16
2023-02-23T03:19:40.284Z,99239.09
2023-02-23T03:22:42.363Z,99240.97
2023-02-23T03:25:35.606Z,99247.28
2023-02-23T03:28:44.066Z,99243.25
2023-02-23T03:31:33.757Z,99240.53
2023-02-23T03:34:29.893Z,99244.13
2023-02-23T03:37:38.724Z,99247.53
2023-02-23T03:40:35.121Z,99248.41
2023-02-23T03:43:24.186Z,99250.84
2023-02-23T03:46:18.236Z,99251.63
2023-02-23T03:49:04.737Z,99248.78
2023-02-23T03:51:53.386Z,99259.22
2023-02-23T03:54:51.765Z,99256.66
2023-02-23T03:57:40.516Z,99257.47
2023-02-23T04:00:28.850Z,99260.72
2023-02-23T04:03:16.198Z,99260.44
2023-02-23T04:06:03.968Z,99259.47
2023-02-23T04:08:55.000Z,99261.34
2023-02-23T04:11:48.061Z,99268.41
2023-02-23T04:14:27.250Z,99272.91
2023-02-23T04:16:55.652Z,99270.44
2023-02-23T04:19:24.408Z,99270.38
2023-02-23T04:21:51.537Z,99270.50
2023-02-23T04:24:18.614Z,99270.44
2023-02-23T04:26:45.626Z,99277.94
2023-02-23T04:29:12.845Z,99278.78
2023-02-23T04:31:41.849Z,99280.53
2023-02-23T04:34:08.911Z,99273.75
2023-02-23T04:36:36.674Z,99270.25
2023-02-23T04:39:03.819Z,99264.38
2023-02-23T04:41:31.552Z,99270.38
2023-02-23T04:43:58.746Z,99279.03
2023-02-23T04:46:26.067Z,99273.97
2023-02-23T04:48:53.123Z,99276.78
2023-02-23T04:51:20.330Z,99276.78
2023-02-23T04:53:47.434Z,99283.66
2023-02-23T04:56:19.043Z,99289.59
2023-02-23T04:58:46.146Z,99294.69
2023-02-23T05:01:13.213Z,99300.66
2023-02-23T05:03:40.181Z,99293.47
2023-02-23T05:06:07.253Z,99300.97
2023-02-23T05:08:34.326Z,99298.09
2023-02-23T05:11:01.260Z,99301.31
2023-02-23T05:13:28.511Z,99314.03
2023-02-23T05:15:57.900Z,99312.09
2023-02-23T05:18:26.559Z,99314.59
2023-02-23T05:20:54.296Z,99318.09
2023-02-23T05:23:22.034Z,99310.25
2023-02-23T05:25:49.119Z,99309.19
2023-02-23T05:28:16.155Z,99316.81
2023-02-23T05:30:44.218Z,99312.41
2023-02-23T05:33:11.173Z,99319.88
2023-02-23T05:35:41.193Z,99312.84
2023-02-23T05:38:08.657Z,99318.09
2023-02-23T05:40:36.658Z,99325.34
2023-02-23T05:43:03.667Z,99314.69
2023-02-23T05:45:30.830Z,99329.00
2023-02-23T05:48:00.902Z,99330.56
2023-02-23T05:50:28.425Z,99335.31
2023-02-23T05:52:55.511Z,99332.47
2023-02-23T05:55:25.960Z,99328.97
2023-02-23T05:57:54.742Z,99329.13
2023-02-23T06:00:23.046Z,99331.31
2023-02-23T06:02:54.079Z,99329.56
2023-02-23T06:05:21.503Z,99325.84
2023-02-23T06:07:48.496Z,99327.19
2023-02-23T06:10:16.006Z,99322.28
2023-02-23T06:12:43.068Z,99326.66
2023-02-23T06:15:10.455Z,99331.84
2023-02-23T06:17:37.518Z,99334.63
2023-02-23T06:20:07.526Z,99337.84
2023-02-23T06:22:34.577Z,99328.47
2023-02-23T06:25:05.145Z,99329.06
2023-02-23T06:27:32.241Z,99328.53
2023-02-23T06:29:59.710Z,99332.53
2023-02-23T06:32:27.976Z,99328.34
2023-02-23T06:34:55.691Z,99329.09
2023-02-23T06:37:24.514Z,99330.75
2023-02-23T06:39:51.488Z,99346.69
2023-02-23T06:42:21.951Z,99336.88
2023-02-23T06:44:49.091Z,99337.16
2023-02-23T06:47:17.564Z,99343.72
2023-02-23T06:49:47.389Z,99339.16
2023-02-23T06:52:14.892Z,99345.53
2023-02-23T06:54:42.192Z,99349.63
2023-02-23T06:57:09.858Z,99355.38
2023-02-23T06:59:37.062Z,99351.19
2023-02-23T07:02:06.990Z,99346.47
2023-02-23T07:04:35.373Z,99358.97
2023-02-23T07:07:04.231Z,99363.59
2023-02-23T07:09:31.530Z,99354.38
2023-02-23T07:11:58.778Z,99360.84
2023-02-23T07:14:27.205Z,99367.75
2023-02-23T07:16:57.315Z,99364.13
2023-02-23T07:19:27.129Z,99355.69
2023-02-23T07:21:54.337Z,99361.22
2023-02-23T07:24:48.859Z,99366.44
2023-02-23T07:27:15.923Z,99372.03
2023-02-23T07:29:48.374Z,99379.00
2023-02-23T07:32:18.361Z,99354.25
2023-02-23T07:34:48.744Z,99380.63
2023-02-23T07:37:17.367Z,99373.50
2023-02-23T07:39:44.820Z,99377.41
2023-02-23T07:42:15.228Z,99360.41
2023-02-23T07:44:47.044Z,99361.16
2023-02-23T07:47:14.654Z,99358.94
2023-02-23T07:49:43.121Z,99388.91
2023-02-23T07:52:14.260Z,99358.25
2023-02-23T07:54:44.596Z,99374.22
2023-02-23T07:57:12.131Z,99370.09
2023-02-23T07:59:39.709Z,99374.38
2023-02-23T08:02:13.362Z,99363.38
2023-02-23T08:04:43.703Z,99366.13
2023-02-23T08:07:11.561Z,99367.94
2023-02-23T08:09:44.403Z,99368.13
2023-02-23T08:12:18.014Z,99354.72
2023-02-23T08:14:47.288Z,99359.53
2023-02-23T08:19:57.723Z,99362.31
2023-02-23T08:22:37.867Z,99342.91
2023-02-23T08:25:45.807Z,99353.53
2023-02-23T08:28:22.460Z,99342.91
2023-02-23T08:30:50.697Z,99356.44
2023-02-23T08:33:18.042Z,99359.34
2023-02-23T08:35:45.693Z,99355.53
2023-02-23T08:38:12.851Z,99367.59
2023-02-23T08:40:40.353Z,99369.41
2023-02-23T08:43:08.276Z,99345.41
2023-02-23T08:45:35.733Z,99361.09
2023-02-23T08:48:03.693Z,99370.53
2023-02-23T08:50:30.954Z,99367.41
2023-02-23T08:53:05.376Z,99370.50
2023-02-23T08:55:37.009Z,99375.50
2023-02-23T08:58:04.267Z,99377.22
2023-02-23T09:00:33.908Z,99366.75
2023-02-23T09:03:00.874Z,99376.88
2023-02-23T09:05:30.321Z,99361.56
2023-02-23T09:07:58.764Z,99357.66
2023-02-23T09:10:53.381Z,99377.50
2023-02-23T09:13:20.998Z,99366.97
2023-02-23T09:16:17.149Z,99380.50
2023-02-23T09:21:35.613Z,99355.06
2023-02-23T09:24:33.330Z,99370.66
2023-02-23T09:27:00.702Z,99348.88
2023-02-23T09:29:27.663Z,99366.13
2023-02-23T09:31:57.723Z,99360.03
2023-02-23T09:34:24.971Z,99364.91
2023-02-23T09:36:52.348Z,99367.53
2023-02-23T09:39:32.238Z,99362.00
2023-02-23T09:42:16.432Z,99359.78
2023-02-23T09:45:26.781Z,99355.81
2023-02-23T09:48:10.894Z,99363.06
2023-02-23T09:50:45.613Z,99352.81
2023-02-23T09:53:38.998Z,99339.88
2023-02-23T09:56:13.435Z,99356.88
2023-02-23T09:58:45.644Z,99340.66
2023-02-23T10:01:41.392Z,99343.59
2023-02-23T10:04:40.922Z,99339.28
2023-02-23T10:07:20.767Z,99338.50
2023-02-23T10:09:52.181Z,99340.03
2023-02-23T10:12:49.168Z,99344.50
2023-02-23T10:15:37.533Z,99323.94
2023-02-23T10:18:30.700Z,99349.97
2023-02-23T10:21:36.249Z,99333.09
2023-02-23T10:24:27.929Z,99342.97
2023-02-23T10:27:16.336Z,99334.56
2023-02-23T10:29:56.569Z,99330.19
2023-02-23T10:32:46.622Z,99320.81
2023-02-23T10:35:21.576Z,99328.91
2023-02-23T10:37:55.696Z,99320.66
2023-02-23T10:40:33.333Z,99312.25
2023-02-23T10:43:38.399Z,99312.16
2023-02-23T10:46:39.103Z,99328.13
2023-02-23T10:49:17.958Z,99328.91
2023-02-23T10:51:45.672Z,99326.47
2023-02-23T10:54:35.840Z,99334.75
2023-02-23T10:57:05.016Z,99321.63
2023-02-23T10:59:37.164Z,99336.16
2023-02-23T11:02:27.577Z,99332.28
2023-02-23T11:05:01.304Z,99332.41
2023-02-23T11:07:42.326Z,99332.34
2023-02-23T11:13:36.210Z,99322.47
2023-02-23T11:16:25.899Z,99320.03
2023-02-23T11:19:05.491Z,99320.22
2023-02-23T11:21:40.280Z,99299.47
2023-02-23T11:24:16.818Z,99321.16
2023-02-23T11:26:55.401Z,99314.22
2023-02-23T11:29:36.945Z,99301.19
2023-02-23T11:32:10.406Z,99302.34
2023-02-23T11:34:41.456Z,99316.31
2023-02-23T11:37:20.286Z,99312.97
2023-02-23T11:40:02.301Z,99304.22
2023-02-23T11:42:38.629Z,99299.03
2023-02-23T11:45:18.983Z,99292.56
2023-02-23T11:47:59.158Z,99298.78
2023-02-23T11:50:38.750Z,99305.78
2023-02-23T11:53:07.902Z,99319.09
2023-02-23T11:55:44.310Z,99294.00
2023-02-23T11:58:23.104Z,99309.03
2023-02-23T12:00:59.849Z,99314.56
2023-02-23T12:03:29.695Z,99304.56
2023-02-23T12:05:59.282Z,99294.59
2023-02-23T12:08:48.274Z,99303.16
2023-02-23T12:11:26.797Z,99287.91
2023-02-23T12:14:05.602Z,99305.56
2023-02-23T12:16:40.267Z,99310.88
2023-02-23T12:19:08.574Z,99295.25
2023-02-23T12:21:41.520Z,99300.78
2023-02-23T12:24:08.714Z,99305.97
2023-02-23T12:26:48.582Z,99289.31
2023-02-23T12:29:30.213Z,99294.06
2023-02-23T12:32:04.097Z,99292.66
2023-02-23T12:34:45.026Z,99294.97
2023-02-23T12:37:29.273Z,99295.41
2023-02-23T12:40:04.738Z,99293.19
2023-02-23T12:43:09.246Z,99294.56
2023-02-23T12:49:01.166Z,99307.50
2023-02-23T12:52:06.673Z,99299.81
2023-02-23T12:54:39.104Z,99309.91
2023-02-23T12:57:13.499Z,99309.84
2023-02-23T12:59:57.430Z,99318.28
2023-02-23T13:02:42.554Z,99317.47
2023-02-23T13:05:16.282Z,99296.53
2023-02-23T13:07:47.881Z,99322.78
2023-02-23T13:10:53.798Z,99304.06
2023-02-23T13:16:45.398Z,99306.69
2023-02-23T13:19:38.462Z,99305.50
2023-02-23T13:22:08.394Z,99310.25
2023-02-23T13:24:44.425Z,99291.69
2023-02-23T13:27:36.536Z,99306.41
2023-02-23T13:30:25.513Z,99293.66
2023-02-23T13:32:52.960Z,99319.19
2023-02-23T13:35:22.878Z,99304.53
2023-02-23T13:38:04.871Z,99303.22
2023-02-23T13:40:51.741Z,99317.16
2023-02-23T13:44:02.266Z,99290.94
2023-02-23T13:46:44.360Z,99315.97
2023-02-23T13:49:34.039Z,99308.56
2023-02-23T13:52:21.360Z,99308.56
2023-02-23T13:54:56.554Z,99307.72
2023-02-23T13:57:28.006Z,99314.88
2023-02-23T13:59:55.295Z,99328.22
2023-02-23T14:02:33.387Z,99321.06
2023-02-23T14:05:24.926Z,99323.50
2023-02-23T14:07:55.203Z,99325.19
2023-02-23T14:10:29.942Z,99327.44
2023-02-23T14:13:18.240Z,99331.34
2023-02-23T14:15:53.832Z,99329.66
2023-02-23T14:18:21.254Z,99332.28
2023-02-23T14:20:57.526Z,99329.28
2023-02-23T14:23:25.144Z,99323.34
2023-02-23T14:26:13.412Z,99323.94
2023-02-23T14:28:46.895Z,99315.69
2023-02-23T14:31:14.125Z,99317.03
2023-02-23T14:33:45.592Z,99315.25
2023-02-23T14:36:22.301Z,99313.72
2023-02-23T14:39:01.404Z,99313.50
2023-02-23T14:41:58.687Z,99304.78
2023-02-23T14:44:54.456Z,99309.06
2023-02-23T14:47:26.787Z,99302.19
2023-02-23T14:50:04.845Z,99320.16
2023-02-23T14:52:38.414Z,99308.28
2023-02-23T14:55:11.352Z,99314.56
2023-02-23T14:57:42.076Z,99291.72
2023-02-23T15:00:23.213Z,99301.91
2023-02-23T15:02:55.436Z,99275.00
2023-02-23T15:05:26.535Z,99292.66
2023-02-23T15:07:58.945Z,99279.09
2023-02-23T15:10:32.870Z,99300.63
2023-02-23T15:13:01.677Z,99306.44
2023-02-23T15:15:31.864Z,99306.78
2023-02-23T15:18:00.356Z,99301.16
2023-02-23T15:23:03.869Z,99312.81
2023-02-23T15:25:39.925Z,99308.78
2023-02-23T15:28:21.992Z,99314.78
2023-02-23T15:30:51.748Z,99307.16
2023-02-23T15:33:23.803Z,99305.31
2023-02-23T15:36:01.016Z,99315.66
2023-02-23T15:38:43.605Z,99309.69
2023-02-23T15:41:27.321Z,99292.59
2023-02-23T15:43:56.366Z,99306.34
2023-02-23T15:46:29.185Z,99321.88
2023-02-23T15:49:03.222Z,99306.53
2023-02-23T15:51:36.653Z,99303.72
2023-02-23T15:54:13.974Z,99304.34
2023-02-23T15:56:41.268Z,99297.88
2023-02-23T15:59:14.629Z,99306.13
2023-02-23T16:01:45.012Z,99302.66
2023-02-23T16:04:15.669Z,99310.38
2023-02-23T16:07:04.556Z,99297.75
2023-02-23T16:09:37.590Z,99293.31
2023-02-23T16:12:05.726Z,99299.66
2023-02-23T16:14:45.645Z,99288.69
2023-02-23T16:17:27.976Z,99274.16
2023-02-23T16:19:58.602Z,99281.50
2023-02-23T16:22:27.782Z,99292.34
2023-02-23T16:25:03.870Z,99288.41
2023-02-23T16:27:33.838Z,99270.16
2023-02-23T16:30:26.033Z,99287.13
2023-02-23T16:33:44.628Z,99277.00
2023-02-23T16:36:13.266Z,99277.00
2023-02-23T16:38:58.118Z,99266.25
2023-02-23T16:41:27.856Z,99275.47
2023-02-23T16:43:57.549Z,99274.13
2023-02-23T16:46:31.842Z,99272.25
2023-02-23T16:49:10.473Z,99271.81
2023-02-23T16:51:38.568Z,99290.09
2023-02-23T16:54:08.611Z,99269.78
2023-02-23T16:56:39.178Z,99271.25
2023-02-23T16:59:09.845Z,99261.84
2023-02-23T17:01:37.333Z,99270.41
2023-02-23T17:07:04.919Z,99270.00
2023-02-23T17:09:32.684Z,99270.19
2023-02-23T17:12:00.142Z,99265.91
2023-02-23T17:14:33.352Z,99267.06
2023-02-23T17:17:01.346Z,99266.34
2023-02-23T17:19:28.563Z,99248.59
2023-02-23T17:22:01.168Z,99255.56
2023-02-23T17:24:28.415Z,99271.22
2023-02-23T17:26:55.874Z,99270.19
2023-02-23T17:29:23.231Z,99259.94
2023-02-23T17:31:52.631Z,99272.06
2023-02-23T17:34:23.522Z,99256.28
2023-02-23T17:36:51.659Z,99263.28
2023-02-23T17:39:19.625Z,99257.47
2023-02-23T17:41:50.324Z,99256.59
2023-02-23T17:44:17.760Z,99237.72
2023-02-23T17:46:44.910Z,99266.22
2023-02-23T17:49:15.254Z,99270.59
2023-02-23T17:51:43.006Z,99268.50
2023-02-23T17:54:13.246Z,99259.66
2023-02-23T17:59:27.065Z,99243.16
2023-02-23T18:01:54.208Z,99249.75
2023-02-23T18:04:21.629Z,99238.78
2023-02-23T18:06:56.293Z,99236.47
2023-02-23T18:09:27.112Z,99234.53
2023-02-23T18:20:40.261Z,99226.88
2023-02-23T18:23:09.878Z,99210.53
2023-02-23T18:26:24.844Z,99231.91
2023-02-23T18:29:19.822Z,99212.94
2023-02-23T18:31:54.874Z,99235.56
2023-02-23T18:34:26.093Z,99203.19
2023-02-23T18:37:03.820Z,99207.50
2023-02-23T18:39:32.008Z,99206.22
2023-02-23T18:42:00.918Z,99211.97
2023-02-23T18:44:37.550Z,99208.84
2023-02-23T18:47:04.731Z,99202.16
2023-02-23T18:49:35.891Z,99234.31
2023-02-23T18:52:05.889Z,99209.06
2023-02-23T18:54:33.504Z,99212.94
2023-02-23T18:57:03.382Z,99193.19
2023-02-23T18:59:33.673Z,99209.28
2023-02-23T19:02:05.847Z,99204.47
2023-02-23T19:07:20.506Z,99198.84
2023-02-23T19:09:53.747Z,99199.47
2023-02-23T19:12:41.842Z,99203.53
2023-02-23T19:15:15.485Z,99206.22
2023-02-23T19:17:42.770Z,99189.22
2023-02-23T19:20:17.664Z,99196.31
2023-02-23T19:22:46.013Z,99201.00
2023-02-23T19:25:21.631Z,99178.59
2023-02-23T19:27:49.310Z,99179.31
2023-02-23T19:30:19.700Z,99194.44
2023-02-23T19:32:49.466Z,99181.09
2023-02-23T19:35:17.129Z,99189.09
2023-02-23T19:37:47.829Z,99172.41
2023-02-23T19:40:19.886Z,99160.03
2023-02-23T19:42:48.201Z,99180.38
2023-02-23T19:45:16.233Z,99150.22
2023-02-23T19:47:44.196Z,99171.06
2023-02-23T19:50:20.251Z,99177.34
2023-02-23T19:52:49.302Z,99189.53
2023-02-23T19:55:16.463Z,99171.72
2023-02-23T19:57:47.072Z,99173.28
2023-02-23T20:00:14.828Z,99164.19
2023-02-23T20:02:46.756Z,99169.19
2023-02-23T20:05:16.777Z,99161.06
2023-02-23T20:07:44.824Z,99170.03
2023-02-23T20:10:16.686Z,99163.03
2023-02-23T20:12:44.302Z,99167.94
2023-02-23T20:15:17.160Z,99155.22
2023-02-23T20:17:54.001Z,99154.81
2023-02-23T20:20:26.684Z,99156.19
2023-02-23T20:22:53.868Z,99153.56
2023-02-23T20:25:22.974Z,99148.06
2023-02-23T20:27:51.449Z,99150.53
2023-02-23T20:30:20.156Z,99142.94
2023-02-23T20:32:48.234Z,99132.94
2023-02-23T20:35:22.172Z,99146.38
2023-02-23T20:37:52.349Z,99146.38
2023-02-23T20:40:20.410Z,99156.50
2023-02-23T20:42:49.167Z,99149.41
2023-02-23T20:45:22.530Z,99133.16
2023-02-23T20:47:53.676Z,99142.00
2023-02-23T20:50:35.848Z,99146.06
2023-02-23T20:53:08.814Z,99131.66
2023-02-23T20:55:36.092Z,99138.88
2023-02-23T20:58:05.856Z,99140.31
2023-02-23T21:00:33.100Z,99150.13
2023-02-23T21:03:05.460Z,99126.56
2023-02-23T21:05:57.893Z,99129.69
2023-02-23T21:08:25.085Z,99131.78
2023-02-23T21:10:53.796Z,99130.53
2023-02-23T21:13:23.325Z,99106.75
2023-02-23T21:16:01.652Z,99109.34
2023-02-23T21:18:30.834Z,99137.09
2023-02-23T21:21:06.948Z,99102.50
2023-02-23T21:23:34.292Z,99117.31
2023-02-23T21:26:09.927Z,99099.47
2023-02-23T21:28:39.441Z,99113.13
2023-02-23T21:31:06.933Z,99118.88
2023-02-23T21:33:39.974Z,99118.56
2023-02-23T21:36:11.396Z,99096.66
2023-02-23T21:38:43.731Z,99104.16
2023-02-23T21:41:12.685Z,99102.59
2023-02-23T21:43:41.627Z,99094.25
2023-02-23T21:46:13.714Z,99093.94
2023-02-23T21:48:41.658Z,99090.59
2023-02-23T21:51:12.113Z,99104.59
2023-02-23T21:53:40.267Z,99100.31
2023-02-23T21:56:16.788Z,99097.19
2023-02-23T21:58:52.606Z,99101.88
2023-02-23T22:01:22.784Z,99090.81
2023-02-23T22:03:50.863Z,99109.38
2023-02-23T22:06:20.752Z,99085.59
2023-02-23T22:08:51.201Z,99077.91
2023-02-23T22:11:21.255Z,99081.03
2023-02-23T22:13:49.904Z,99085.00
2023-02-23T22:16:55.366Z,99083.13
2023-02-23T22:19:37.582Z,99073.81
2023-02-23T22:22:27.775Z,99072.88
2023-02-23T22:25:12.835Z,99071.22
2023-02-23T22:27:54.875Z,99058.19
2023-02-23T22:30:23.203Z,99046.63
2023-02-23T22:32:52.736Z,99046.44
2023-02-23T22:35:53.661Z,99065.56
2023-02-23T22:38:26.509Z,99060.69
2023-02-23T22:41:11.075Z,99036.59
2023-02-23T22:43:46.591Z,99043.81
2023-02-23T22:46:28.376Z,99029.00
2023-02-23T22:49:01.903Z,99037.63
2023-02-23T22:51:35.834Z,99034.72
2023-02-23T22:54:09.137Z,99036.78
2023-02-23T22:56:50.245Z,99021.13
2023-02-23T22:59:25.440Z,99027.78
2023-02-23T23:01:59.014Z,99017.66
2023-02-23T23:04:34.820Z,99007.97
2023-02-23T23:07:03.962Z,99012.34
2023-02-23T23:09:58.215Z,99006.09
2023-02-23T23:12:43.698Z,99012.13
2023-02-23T23:15:57.709Z,99001.06
2023-02-23T23:18:36.768Z,98997.75
2023-02-23T23:21:14.512Z,99005.78
2023-02-23T23:24:02.881Z,98979.72
2023-02-23T23:26:53.932Z,98976.44
2023-02-23T23:29:33.025Z,98959.22
2023-02-23T23:32:08.799Z,98985.22
2023-02-23T23:35:12.675Z,98972.69
2023-02-23T23:37:41.749Z,98962.69
2023-02-23T23:40:16.288Z,98973.63
2023-02-23T23:42:51.915Z,98948.91
2023-02-23T23:45:25.767Z,98968.66
2023-02-23T23:48:01.044Z,98970.59
2023-02-23T23:50:31.621Z,98955.69
2023-02-23T23:53:02.026Z,98968.06
2023-02-23T23:55:38.769Z,98939.53
2023-02-23T23:58:08.181Z,98943.59
